首页
METAR-TAF:

METAR-TAF

机场 :

皮斯里弗, 艾伯塔, 加拿大

纬度: 56-14N, 经度: 117-26W, 海拔: 571米

当前天气观测

该预报发布于21分钟前的02:00 UTC
风速11节,风向西转西南,有时为17节阵风
温度 21°C
湿度 49%
气压 1012 hPa
能見度: 24.1公里
少量云层高于25000英尺

METAR: CYPE 050200Z 24011G17KT 15SM FEW250 21/10 A2987 RMK CI1 CI TR SLP125 DENSITY ALT 3100FT

时间: 20:21 (02:21 UTC)

预报

该预报发布于1小时和43分钟前的00:38 UTC
预报有效从05日的 01点(UTC)到 05日的 13点(UTC)
风速15节,风向西,有时为25节阵风
能見度: 10公里
少量云层高于5000英尺
少量云层高于25000英尺
从 05日的 0600点(UTC)
风速8节,风向西
能見度: 10公里
少量云层高于5000英尺
少量云层高于25000英尺

TAF: CYPE 050038Z 0501/0513 26015G25KT P6SM FEW050 FEW250 FM050600 26008KT P6SM FEW050 FEW250 RMK NXT FCST BY 050700Z

超过4000个机场的气象观测和天气预报(METAR&TAF报告)。

可查询的气象台以黄色和红色小点在地图上表示。

将鼠标移到小点上方,可查看气象台名称。

然后点击查看天气观测和预报。

如需切换地图:点击带黑十字的绿色按钮放大地图;点击带横线的绿色按钮缩小地图;或者点击绿色箭头查看邻近地区的地图。


METAR-TAF: